Time;durP1;ratioP1;P1;durP2;ratioP2;P2;SDS_P1;SDS_P2;PMS_P1;PMS_P2;Temp;Humidity;BMP_temperature;BMP_pressure;BME280_temperature;BME280_humidity;BME280_pressure;Samples;Min_cycle;Max_cycle;Signal;HPM_P1;HPM_P2
2023/06/04 00:00:41;;;;;;;1.83;1.20;;;;;;;15.47;43.12;100283.06;5009036;28;20226;-75
2023/06/04 00:03:07;;;;;;;3.37;2.07;;;;;;;15.41;43.06;100280.13;5013014;28;20206;-75
2023/06/04 00:05:33;;;;;;;5.83;1.57;;;;;;;15.30;43.35;100286.88;5010602;28;20266;-75
2023/06/04 00:07:58;;;;;;;2.83;1.20;;;;;;;15.38;42.59;100282.91;5011826;28;20191;-74
2023/06/04 00:10:24;;;;;;;2.90;1.63;;;;;;;15.32;42.57;100281.59;5006554;28;20364;-74
2023/06/04 00:12:49;;;;;;;2.73;1.60;;;;;;;15.36;42.81;100288.22;5026434;28;20681;-74
2023/06/04 00:15:16;;;;;;;4.97;1.53;;;;;;;15.29;43.06;100279.22;5012558;28;20631;-75
2023/06/04 00:17:41;;;;;;;3.20;1.50;;;;;;;15.17;42.80;100276.56;5013021;28;20198;-74
2023/06/04 00:20:07;;;;;;;3.53;1.47;;;;;;;15.19;43.09;100281.63;5003629;28;20186;-75
2023/06/04 00:22:33;;;;;;;5.63;1.50;;;;;;;15.22;43.28;100285.78;5012439;28;20210;-74
2023/06/04 00:24:58;;;;;;;5.00;1.80;;;;;;;15.17;43.10;100286.94;5013352;28;20508;-75
2023/06/04 00:27:23;;;;;;;3.63;1.57;;;;;;;15.23;43.32;100283.09;5011929;28;20182;-73
2023/06/04 00:29:49;;;;;;;4.97;1.80;;;;;;;15.04;44.12;100280.97;5014143;28;20326;-74
2023/06/04 00:32:14;;;;;;;5.53;1.90;;;;;;;15.05;43.49;100276.63;5005470;28;20231;-74
2023/06/04 00:34:40;;;;;;;5.23;1.57;;;;;;;15.16;43.37;100280.09;5013776;28;20252;-74
2023/06/04 00:37:05;;;;;;;2.67;1.30;;;;;;;14.97;43.69;100280.56;5012051;28;20273;-74
2023/06/04 00:39:31;;;;;;;2.50;1.60;;;;;;;15.05;43.27;100279.22;5012696;28;20545;-73
2023/06/04 00:41:56;;;;;;;7.50;1.63;;;;;;;14.94;43.69;100285.94;5004943;28;20715;-74
2023/06/04 00:44:24;;;;;;;3.37;1.47;;;;;;;14.96;43.83;100278.09;5012241;28;20270;-74
2023/06/04 00:46:50;;;;;;;1.70;1.20;;;;;;;14.98;44.57;100273.63;5012210;28;20183;-75
2023/06/04 00:49:15;;;;;;;6.63;1.50;;;;;;;14.91;44.16;100278.41;5011582;28;20261;-73
2023/06/04 00:51:41;;;;;;;1.80;1.40;;;;;;;14.94;43.82;100282.56;5015696;28;20233;-75
2023/06/04 00:54:08;;;;;;;4.40;1.67;;;;;;;14.85;44.30;100281.44;5011690;28;20166;-73
2023/06/04 00:56:38;;;;;;;2.83;1.87;;;;;;;14.84;44.95;100285.75;5011071;28;20191;-73
2023/06/04 00:59:08;;;;;;;4.03;1.70;;;;;;;14.85;44.79;100279.66;5004741;28;20190;-73
2023/06/04 01:01:48;;;;;;;2.50;1.43;;;;;;;14.82;44.70;100273.84;5004468;28;20233;-74
2023/06/04 01:04:53;;;;;;;2.93;1.20;;;;;;;14.69;45.13;100273.91;5011602;28;20167;-74
2023/06/04 01:07:19;;;;;;;2.40;1.43;;;;;;;14.62;45.40;100278.63;4994809;28;20546;-73
2023/06/04 01:09:45;;;;;;;3.27;1.67;;;;;;;14.66;45.04;100282.69;5009973;28;20277;-74
2023/06/04 01:12:11;;;;;;;5.33;1.60;;;;;;;14.65;45.13;100277.63;5003283;28;20697;-74
2023/06/04 01:14:37;;;;;;;2.40;1.40;;;;;;;14.68;45.49;100285.19;5010620;28;20229;-74
2023/06/04 01:17:08;;;;;;;7.20;1.67;;;;;;;14.58;45.44;100281.53;5011081;28;20186;-74
2023/06/04 01:19:54;;;;;;;4.33;1.63;;;;;;;14.53;45.91;100272.31;5010754;28;20182;-74
2023/06/04 01:22:36;;;;;;;2.07;1.43;;;;;;;14.39;46.46;100269.00;5001022;28;20807;-74
2023/06/04 01:25:12;;;;;;;1.97;1.40;;;;;;;14.40;46.02;100271.53;5001679;28;20179;-74
2023/06/04 01:27:40;;;;;;;4.20;1.50;;;;;;;14.36;46.38;100273.47;5012441;28;20194;-74
2023/06/04 01:30:08;;;;;;;1.53;1.33;;;;;;;14.40;45.94;100268.94;4999626;28;20635;-74
2023/06/04 01:32:33;;;;;;;2.27;1.30;;;;;;;14.38;45.81;100265.59;5019962;28;20225;-74
2023/06/04 01:34:59;;;;;;;1.43;1.23;;;;;;;14.26;46.70;100269.03;5010620;28;20210;-75
2023/06/04 01:37:26;;;;;;;2.40;1.50;;;;;;;14.26;46.33;100271.63;5011145;28;20241;-75
2023/06/04 01:39:51;;;;;;;2.83;1.53;;;;;;;14.29;46.79;100271.38;5012114;28;20630;-75
2023/06/04 01:42:16;;;;;;;4.10;1.60;;;;;;;14.09;47.63;100260.66;5000485;28;20229;-74
2023/06/04 01:44:42;;;;;;;1.33;1.23;;;;;;;14.04;47.85;100270.44;5012192;28;20193;-74
2023/06/04 01:47:07;;;;;;;6.13;1.60;;;;;;;13.95;49.06;100273.66;5009963;28;20181;-74
2023/06/04 01:49:32;;;;;;;2.93;1.53;;;;;;;13.88;50.95;100273.25;5010978;28;20683;-74
2023/06/04 01:51:57;;;;;;;1.57;1.40;;;;;;;13.82;52.27;100268.47;5013292;28;20280;-75
2023/06/04 01:54:23;;;;;;;1.67;1.37;;;;;;;13.76;54.40;100274.03;5011811;28;20193;-75
2023/06/04 01:56:48;;;;;;;4.07;1.30;;;;;;;13.59;56.79;100269.97;5010363;28;20744;-75
2023/06/04 01:59:16;;;;;;;3.50;1.80;;;;;;;13.51;57.35;100267.88;5026945;28;20179;-74
2023/06/04 02:01:41;;;;;;;6.67;1.97;;;;;;;13.30;57.75;100272.63;5001411;28;20221;-75
2023/06/04 02:07:57;;;;;;;4.30;1.67;;;;;;;12.93;61.16;100270.56;5011821;28;20197;-74
2023/06/04 02:10:22;;;;;;;2.30;1.60;;;;;;;12.95;62.39;100273.91;5016859;28;20242;-75
2023/06/04 02:12:59;;;;;;;3.07;1.50;;;;;;;12.89;62.25;100269.13;5023591;28;20426;-74
2023/06/04 02:15:25;;;;;;;3.13;1.37;;;;;;;12.93;62.12;100269.75;5009203;28;20571;-75
2023/06/04 02:17:58;;;;;;;2.00;1.40;;;;;;;12.78;64.03;100266.38;5010207;28;20185;-74
2023/06/04 02:20:25;;;;;;;2.90;1.70;;;;;;;12.85;65.86;100272.78;5004617;28;20330;-75
2023/06/04 02:22:50;;;;;;;3.13;1.40;;;;;;;12.78;66.67;100271.53;5009855;28;20243;-75
2023/06/04 02:25:16;;;;;;;1.87;1.40;;;;;;;12.67;68.38;100269.59;5011262;28;20996;-74
2023/06/04 02:27:42;;;;;;;4.53;1.60;;;;;;;12.61;70.31;100280.28;5010613;28;20281;-75
2023/06/04 02:30:07;;;;;;;1.80;1.50;;;;;;;12.65;70.37;100274.00;4987253;28;20206;-75
2023/06/04 02:32:35;;;;;;;3.43;1.13;;;;;;;12.54;71.38;100272.06;5010533;28;20178;-75
2023/06/04 02:35:02;;;;;;;2.13;1.47;;;;;;;12.46;73.84;100274.28;5008026;28;20179;-75
2023/06/04 02:37:27;;;;;;;2.60;1.60;;;;;;;12.40;73.97;100268.59;5010440;28;20293;-76
2023/06/04 02:39:52;;;;;;;3.93;1.60;;;;;;;12.38;73.33;100267.03;5011415;28;20257;-75
2023/06/04 02:42:18;;;;;;;4.70;2.30;;;;;;;12.36;74.84;100271.44;5013214;28;20230;-75
2023/06/04 02:44:43;;;;;;;2.70;1.50;;;;;;;12.32;73.60;100270.78;5015308;28;20540;-75
2023/06/04 02:47:08;;;;;;;1.87;1.30;;;;;;;12.32;73.55;100265.63;5015015;28;20863;-75
2023/06/04 02:49:34;;;;;;;2.90;1.50;;;;;;;12.25;76.59;100266.91;5008323;28;20195;-75
2023/06/04 02:51:59;;;;;;;2.37;1.50;;;;;;;12.11;81.31;100270.28;5004435;28;20324;-75
2023/06/04 02:54:25;;;;;;;3.03;1.60;;;;;;;11.96;83.74;100274.59;5011693;28;20249;-75
2023/06/04 02:56:51;;;;;;;2.83;1.80;;;;;;;11.97;84.02;100277.97;5013630;28;20180;-75
2023/06/04 02:59:16;;;;;;;2.33;1.50;;;;;;;11.90;82.85;100278.31;5030607;28;20504;-75
2023/06/04 03:01:42;;;;;;;2.53;1.70;;;;;;;11.83;82.12;100277.00;4993665;28;20226;-75
2023/06/04 03:04:09;;;;;;;5.70;1.90;;;;;;;11.70;82.19;100270.91;5010335;28;20189;-75
2023/06/04 03:06:37;;;;;;;2.77;1.60;;;;;;;11.65;83.01;100272.88;5014595;28;20236;-75
2023/06/04 03:09:03;;;;;;;3.97;1.90;;;;;;;11.57;83.41;100276.75;5015282;28;20270;-75
2023/06/04 03:11:28;;;;;;;2.53;1.47;;;;;;;11.60;83.57;100276.56;5015535;28;20308;-75
2023/06/04 03:13:54;;;;;;;3.13;1.40;;;;;;;11.54;84.07;100278.66;5011975;28;20187;-75
2023/06/04 03:16:20;;;;;;;2.73;2.07;;;;;;;11.56;83.87;100272.50;5015479;28;20321;-75
2023/06/04 03:18:46;;;;;;;4.47;1.63;;;;;;;11.50;85.71;100275.41;5007024;28;20658;-75
2023/06/04 03:21:11;;;;;;;3.63;1.60;;;;;;;11.40;87.73;100276.81;5013545;28;20229;-75
2023/06/04 03:23:37;;;;;;;3.47;1.80;;;;;;;11.46;87.60;100279.06;5012844;28;20190;-75
2023/06/04 03:26:03;;;;;;;2.50;1.70;;;;;;;11.52;87.06;100289.00;5013309;28;20192;-75
2023/06/04 03:28:30;;;;;;;2.77;1.70;;;;;;;11.42;86.81;100286.16;5013225;28;20195;-75
2023/06/04 03:30:55;;;;;;;1.67;1.53;;;;;;;11.42;86.99;100286.16;4975272;28;20277;-75
2023/06/04 03:33:21;;;;;;;2.97;1.40;;;;;;;11.44;87.50;100286.06;5004360;28;20639;-75
2023/06/04 03:35:47;;;;;;;4.47;1.60;;;;;;;11.38;87.92;100289.78;5012651;28;20194;-75
2023/06/04 03:38:13;;;;;;;3.03;1.73;;;;;;;11.45;86.50;100295.44;5014276;28;20248;-76
2023/06/04 03:40:38;;;;;;;4.23;1.73;;;;;;;11.40;87.81;100287.13;5009271;28;20291;-75
2023/06/04 03:43:04;;;;;;;2.80;1.80;;;;;;;11.44;87.55;100289.44;5012899;28;20201;-75
2023/06/04 03:45:30;;;;;;;5.87;1.80;;;;;;;11.46;87.40;100284.22;5012559;28;20187;-75
2023/06/04 03:47:55;;;;;;;2.00;1.50;;;;;;;11.46;87.36;100287.63;5012099;28;20194;-75
2023/06/04 03:50:20;;;;;;;4.60;1.80;;;;;;;11.52;86.95;100283.06;5006847;28;20638;-75
2023/06/04 03:52:46;;;;;;;3.53;1.60;;;;;;;11.56;87.62;100274.22;5026528;28;20193;-75
2023/06/04 03:55:12;;;;;;;1.83;1.53;;;;;;;11.63;87.37;100286.69;5011747;28;20171;-75
2023/06/04 03:57:38;;;;;;;1.70;1.60;;;;;;;11.64;88.11;100284.94;5013419;28;20240;-75
2023/06/04 04:00:05;;;;;;;8.70;1.73;;;;;;;11.73;88.80;100288.75;5007774;28;20189;-74
2023/06/04 04:02:31;;;;;;;1.97;1.50;;;;;;;11.78;88.26;100295.31;5021372;28;20211;-75
2023/06/04 04:04:56;;;;;;;3.70;1.70;;;;;;;11.82;88.67;100288.25;5008918;28;20209;-75
2023/06/04 04:07:22;;;;;;;3.67;1.83;;;;;;;11.87;89.75;100293.97;5011202;28;20268;-75
2023/06/04 04:09:47;;;;;;;2.67;1.63;;;;;;;11.89;92.17;100289.53;5012958;28;20202;-75
2023/06/04 04:12:13;;;;;;;4.47;1.60;;;;;;;11.97;91.63;100286.56;5004150;28;20234;-75
2023/06/04 04:14:38;;;;;;;3.57;1.70;;;;;;;12.08;90.18;100286.78;5013628;28;20271;-75
2023/06/04 04:17:03;;;;;;;2.87;1.60;;;;;;;12.10;87.95;100290.06;5013557;28;20182;-75
2023/06/04 04:19:29;;;;;;;8.13;1.53;;;;;;;12.12;87.16;100282.28;5014265;28;20183;-75
2023/06/04 04:21:54;;;;;;;2.77;1.90;;;;;;;12.24;87.09;100285.88;5017998;28;20225;-75
2023/06/04 04:24:24;;;;;;;3.47;1.63;;;;;;;12.27;86.81;100288.28;5013946;28;20191;-75
2023/06/04 04:26:53;;;;;;;2.97;2.20;;;;;;;12.44;86.29;100292.44;5011413;28;20187;-75
2023/06/04 04:29:22;;;;;;;2.33;1.53;;;;;;;12.51;85.29;100291.13;5005948;28;20255;-75
2023/06/04 04:31:51;;;;;;;1.63;1.23;;;;;;;12.55;87.21;100299.53;5001089;28;20222;-75
2023/06/04 04:34:16;;;;;;;4.30;1.50;;;;;;;12.65;86.65;100297.22;5011622;28;20695;-75
2023/06/04 04:36:43;;;;;;;1.90;1.63;;;;;;;12.75;86.57;100300.91;5012165;28;20215;-75
2023/06/04 04:39:09;;;;;;;2.27;1.40;;;;;;;12.85;85.25;100307.19;5012391;28;20178;-75
2023/06/04 04:41:34;;;;;;;2.37;1.40;;;;;;;12.91;81.76;100306.81;4988879;28;20230;-75
2023/06/04 04:44:05;;;;;;;3.63;1.60;;;;;;;13.02;80.10;100307.91;5017085;28;20179;-74
2023/06/04 04:46:30;;;;;;;3.67;1.77;;;;;;;13.25;77.84;100309.06;5010193;28;20613;-74
2023/06/04 04:48:55;;;;;;;2.40;1.67;;;;;;;13.32;76.73;100307.78;5013706;28;20199;-75
2023/06/04 04:51:21;;;;;;;5.43;1.60;;;;;;;13.45;76.28;100307.84;5013521;28;20577;-75
2023/06/04 04:53:46;;;;;;;2.97;1.60;;;;;;;13.40;78.91;100308.13;5005433;28;20183;-74
2023/06/04 04:56:11;;;;;;;2.47;1.63;;;;;;;13.43;79.68;100316.63;5011674;28;20174;-75
2023/06/04 04:58:36;;;;;;;2.87;1.60;;;;;;;13.63;81.10;100311.03;5027975;28;20175;-74
2023/06/04 05:01:02;;;;;;;4.90;1.63;;;;;;;13.77;78.47;100309.28;5011054;28;20688;-74
2023/06/04 05:03:27;;;;;;;2.40;1.43;;;;;;;13.95;78.21;100320.22;5021365;28;20171;-74
2023/06/04 05:05:52;;;;;;;4.73;1.80;;;;;;;14.01;77.29;100317.22;5011066;28;20626;-75
2023/06/04 05:08:17;;;;;;;5.70;1.83;;;;;;;14.26;71.62;100308.66;5010280;28;20190;-75
2023/06/04 05:10:43;;;;;;;3.73;1.90;;;;;;;14.15;75.97;100319.72;5004945;28;20716;-75
2023/06/04 05:13:08;;;;;;;3.27;1.83;;;;;;;14.50;72.05;100326.91;5011147;28;20223;-75
2023/06/04 05:15:34;;;;;;;2.63;1.63;;;;;;;14.75;70.18;100333.03;5011668;28;20538;-75
2023/06/04 05:18:00;;;;;;;2.97;1.60;;;;;;;15.08;68.54;100328.19;5027355;28;20183;-73
2023/06/04 05:20:25;;;;;;;6.97;1.77;;;;;;;15.17;69.78;100330.16;5002854;28;20222;-73
2023/06/04 05:22:51;;;;;;;2.40;1.43;;;;;;;15.39;70.76;100336.41;5022393;28;20211;-73
2023/06/04 05:25:17;;;;;;;2.47;1.70;;;;;;;15.49;68.56;100333.06;5011255;28;20174;-73
2023/06/04 05:27:42;;;;;;;4.23;1.90;;;;;;;15.34;68.70;100339.31;5011689;28;20182;-73
2023/06/04 05:30:08;;;;;;;3.27;1.50;;;;;;;15.69;65.58;100337.75;4990391;28;20241;-73
2023/06/04 05:32:36;;;;;;;1.40;1.30;;;;;;;16.08;61.31;100339.22;5006905;28;20206;-72
2023/06/04 05:35:04;;;;;;;2.23;1.60;;;;;;;15.93;58.03;100346.34;5022821;28;20190;-72
2023/06/04 05:37:29;;;;;;;5.13;1.63;;;;;;;16.11;56.27;100333.81;5012903;28;20185;-72
2023/06/04 05:39:56;;;;;;;6.30;1.30;;;;;;;16.30;53.84;100337.63;5010925;28;20175;-72
2023/06/04 05:42:21;;;;;;;10.27;1.97;;;;;;;16.67;53.65;100334.00;5014548;28;20233;-73
2023/06/04 05:44:46;;;;;;;3.27;1.70;;;;;;;16.74;50.77;100337.78;5011777;28;20252;-72
2023/06/04 05:47:12;;;;;;;3.10;1.30;;;;;;;16.63;50.21;100336.00;5012217;28;20183;-72
2023/06/04 05:49:37;;;;;;;1.93;1.43;;;;;;;16.68;49.69;100338.25;5011036;28;20195;-73
2023/06/04 05:52:02;;;;;;;2.87;1.80;;;;;;;17.09;48.24;100344.66;5017417;28;20237;-73
2023/06/04 05:54:28;;;;;;;4.83;2.03;;;;;;;17.06;46.53;100340.50;5012171;28;20228;-73
2023/06/04 05:56:54;;;;;;;3.43;1.63;;;;;;;16.87;45.94;100338.50;5012024;28;20194;-73
2023/06/04 05:59:22;;;;;;;3.03;1.70;;;;;;;17.05;46.07;100346.66;5011505;28;20175;-73
2023/06/04 06:01:47;;;;;;;1.93;1.43;;;;;;;16.97;44.09;100341.25;5014621;28;20685;-73
2023/06/04 06:04:13;;;;;;;5.17;1.37;;;;;;;17.25;44.31;100354.66;5013841;28;20188;-73
2023/06/04 06:06:39;;;;;;;7.00;1.90;;;;;;;17.93;42.39;100351.06;5012049;28;20197;-74
2023/06/04 06:09:04;;;;;;;4.23;1.30;;;;;;;17.93;43.73;100351.06;5012098;28;20178;-73
2023/06/04 06:11:30;;;;;;;3.03;1.60;;;;;;;18.25;42.39;100352.81;5003983;28;20258;-73
2023/06/04 06:13:55;;;;;;;2.70;1.47;;;;;;;18.23;40.39;100353.75;5006368;28;20634;-73
2023/06/04 06:16:20;;;;;;;5.70;1.70;;;;;;;18.99;38.06;100364.84;5009929;28;20270;-74
2023/06/04 06:18:46;;;;;;;10.17;2.77;;;;;;;19.46;37.62;100361.66;5012106;28;20179;-73
2023/06/04 06:21:11;;;;;;;4.90;1.53;;;;;;;19.99;37.12;100363.94;5001337;28;20281;-74
2023/06/04 06:23:37;;;;;;;1.37;1.13;;;;;;;20.61;37.05;100373.97;5013883;28;20185;-74
2023/06/04 06:26:04;;;;;;;1.83;1.40;;;;;;;20.46;35.54;100365.75;5010323;28;20174;-73
2023/06/04 06:28:29;;;;;;;4.17;1.60;;;;;;;21.57;34.60;100369.41;5010546;28;20206;-73
2023/06/04 06:30:54;;;;;;;5.97;1.37;;;;;;;21.59;33.55;100375.31;4990627;28;20241;-74
2023/06/04 06:33:21;;;;;;;1.83;1.60;;;;;;;21.45;33.03;100381.88;5004439;28;20197;-74
2023/06/04 06:35:47;;;;;;;4.40;1.50;;;;;;;20.98;33.99;100380.19;5010323;28;20174;-74
2023/06/04 06:38:12;;;;;;;5.27;1.63;;;;;;;21.04;33.44;100376.19;5010142;28;20233;-73
2023/06/04 06:40:38;;;;;;;3.83;1.70;;;;;;;21.64;33.14;100373.06;5006581;28;20234;-74
2023/06/04 06:43:03;;;;;;;4.13;1.70;;;;;;;21.84;33.10;100372.94;5018689;28;20218;-74
2023/06/04 06:45:28;;;;;;;5.73;1.40;;;;;;;22.46;32.05;100385.22;5010406;28;20187;-74
2023/06/04 06:47:53;;;;;;;1.83;1.40;;;;;;;21.21;32.53;100390.25;5011504;28;20276;-74
2023/06/04 06:50:19;;;;;;;3.53;1.23;;;;;;;21.08;32.96;100390.63;5002472;28;20178;-74
2023/06/04 06:52:44;;;;;;;2.27;1.50;;;;;;;21.20;32.65;100389.44;5006821;28;20195;-74
2023/06/04 06:55:10;;;;;;;3.17;1.37;;;;;;;20.95;32.92;100398.81;5004684;28;20194;-73
2023/06/04 06:57:35;;;;;;;2.57;1.30;;;;;;;21.07;32.40;100402.03;5005830;28;20191;-75
2023/06/04 07:00:00;;;;;;;4.87;1.53;;;;;;;21.00;32.59;100400.97;5009269;28;20182;-73
2023/06/04 07:02:26;;;;;;;2.50;1.50;;;;;;;22.16;31.64;100395.13;4986046;28;20227;-74
2023/06/04 07:04:51;;;;;;;3.10;1.60;;;;;;;22.85;31.07;100395.25;5010863;28;20186;-74
2023/06/04 07:07:16;;;;;;;2.10;1.43;;;;;;;23.07;30.89;100404.38;5009632;28;20264;-74
2023/06/04 07:09:42;;;;;;;3.10;1.63;;;;;;;23.24;30.44;100399.22;5009721;28;20183;-75
2023/06/04 07:12:07;;;;;;;2.97;1.60;;;;;;;23.78;29.75;100401.47;5016276;28;20237;-75
2023/06/04 07:14:32;;;;;;;1.73;1.30;;;;;;;23.21;29.75;100402.97;5010383;28;20220;-73
2023/06/04 07:16:58;;;;;;;2.63;1.50;;;;;;;23.56;29.55;100400.28;5015739;28;20450;-74
2023/06/04 07:19:23;;;;;;;4.00;1.55;;;;;;;24.05;28.67;100410.84;5009359;28;20186;-73
2023/06/04 07:21:48;;;;;;;5.03;1.38;;;;;;;23.36;29.64;100400.56;5002988;28;20764;-74
2023/06/04 07:24:13;;;;;;;5.07;1.63;;;;;;;24.14;29.67;100398.53;5009985;28;20183;-73
2023/06/04 07:26:39;;;;;;;1.88;1.27;;;;;;;25.93;27.75;100396.31;5025903;28;20201;-74
2023/06/04 07:29:05;;;;;;;4.35;1.77;;;;;;;26.36;26.90;100395.81;5008246;28;20210;-74
2023/06/04 07:31:30;;;;;;;5.07;1.58;;;;;;;26.95;26.29;100400.25;4971125;28;20239;-74
2023/06/04 07:33:56;;;;;;;1.83;1.30;;;;;;;27.03;24.67;100404.66;5013142;28;20190;-74
2023/06/04 07:36:22;;;;;;;3.00;1.40;;;;;;;26.86;25.47;100398.75;5014083;28;20535;-74
2023/06/04 07:38:47;;;;;;;3.03;1.30;;;;;;;26.95;25.59;100410.81;5013741;28;20631;-75
2023/06/04 07:41:13;;;;;;;2.45;1.50;;;;;;;25.82;26.75;100415.19;5013864;28;20312;-74
2023/06/04 07:43:38;;;;;;;2.08;1.17;;;;;;;26.21;26.57;100409.78;5013300;28;20638;-74
2023/06/04 07:46:06;;;;;;;3.47;1.60;;;;;;;26.81;25.54;100409.03;5014165;28;20202;-74
2023/06/04 07:48:31;;;;;;;2.47;1.38;;;;;;;26.80;24.84;100420.59;5014396;28;20202;-74
2023/06/04 07:50:58;;;;;;;3.67;1.60;;;;;;;27.69;24.57;100409.84;5011616;28;20229;-75
2023/06/04 07:53:23;;;;;;;1.42;1.33;;;;;;;27.62;24.25;100411.59;5013129;28;20607;-74
2023/06/04 07:55:48;;;;;;;2.15;1.48;;;;;;;26.96;24.85;100415.09;5014399;28;20213;-75
2023/06/04 07:58:13;;;;;;;2.13;1.13;;;;;;;25.99;25.69;100416.69;5013731;28;20175;-74
2023/06/04 08:00:39;;;;;;;1.85;1.40;;;;;;;26.54;25.38;100411.28;5009120;28;20241;-75
2023/06/04 08:03:04;;;;;;;3.97;1.70;;;;;;;26.50;25.43;100416.09;5024970;28;20277;-75
2023/06/04 08:05:30;;;;;;;4.50;1.35;;;;;;;26.49;25.33;100419.72;5012714;28;20175;-74
2023/06/04 08:07:55;;;;;;;3.65;1.55;;;;;;;26.48;24.90;100423.34;5013406;28;20620;-75
2023/06/04 08:10:20;;;;;;;4.05;1.65;;;;;;;26.34;25.42;100411.78;5005410;28;20190;-74
2023/06/04 08:12:46;;;;;;;1.35;1.25;;;;;;;26.46;25.07;100414.81;5027060;28;20249;-75
2023/06/04 08:15:11;;;;;;;5.57;1.40;;;;;;;27.75;23.82;100421.47;5013813;28;20555;-75
2023/06/04 08:17:37;;;;;;;2.05;1.38;;;;;;;26.77;25.08;100423.56;5012956;28;20186;-75
2023/06/04 08:20:06;;;;;;;1.52;1.40;;;;;;;27.35;24.49;100421.88;5009138;28;20175;-75
2023/06/04 08:22:31;;;;;;;2.97;1.40;;;;;;;28.53;23.01;100420.69;5012107;28;20218;-74
2023/06/04 08:24:57;;;;;;;3.30;1.42;;;;;;;27.82;23.79;100421.53;5014074;28;20190;-73
2023/06/04 08:27:22;;;;;;;3.80;1.50;;;;;;;28.46;23.63;100417.97;5013904;28;20630;-75
2023/06/04 08:29:47;;;;;;;3.50;1.23;;;;;;;28.43;23.39;100422.84;5002046;28;20587;-73
2023/06/04 08:32:13;;;;;;;3.03;1.60;;;;;;;29.18;22.58;100416.94;4999547;28;20257;-73
2023/06/04 08:34:39;;;;;;;4.50;1.63;;;;;;;27.49;24.11;100422.84;5004779;28;20223;-75
2023/06/04 08:37:04;;;;;;;4.47;1.40;;;;;;;28.62;23.34;100418.69;5013187;28;20182;-75
2023/06/04 08:39:30;;;;;;;2.97;1.58;;;;;;;28.23;23.65;100417.41;5012037;28;20190;-73
2023/06/04 08:42:01;;;;;;;5.05;1.27;;;;;;;27.38;24.19;100415.38;5017758;28;20792;-76
2023/06/04 08:44:29;;;;;;;4.28;1.67;;;;;;;28.54;23.50;100418.84;5012531;28;20186;-73
2023/06/04 08:47:05;;;;;;;2.15;1.75;;;;;;;28.29;23.89;100414.00;5011924;28;20240;-73
2023/06/04 08:49:38;;;;;;;4.50;1.55;;;;;;;26.69;24.77;100422.66;5013438;28;20190;-75
2023/06/04 08:52:05;;;;;;;3.78;1.63;;;;;;;26.54;25.48;100421.81;5006815;28;20234;-75
2023/06/04 08:54:32;;;;;;;5.72;1.73;;;;;;;26.26;25.41;100420.59;5003401;28;20187;-75
2023/06/04 08:56:58;;;;;;;2.78;1.65;;;;;;;27.05;25.20;100427.22;5012838;28;20218;-75
2023/06/04 08:59:23;;;;;;;6.03;1.55;;;;;;;26.70;24.93;100426.09;5012222;28;20178;-75
2023/06/04 09:01:53;;;;;;;2.08;1.50;;;;;;;26.63;25.13;100426.03;5016672;28;20745;-75
2023/06/04 09:04:18;;;;;;;4.20;1.80;;;;;;;26.08;25.66;100431.47;5012231;28;20183;-76
2023/06/04 09:06:44;;;;;;;3.65;1.45;;;;;;;25.86;26.37;100419.09;5013003;28;20189;-73
2023/06/04 09:09:12;;;;;;;1.75;1.58;;;;;;;26.79;25.52;100430.31;5012054;28;20190;-74
2023/06/04 09:11:57;;;;;;;3.97;1.60;;;;;;;26.48;26.14;100422.53;5017671;28;20281;-74
2023/06/04 09:14:23;;;;;;;2.55;1.70;;;;;;;27.26;24.96;100428.25;5007950;28;20608;-74
2023/06/04 09:16:54;;;;;;;3.38;1.40;;;;;;;27.59;25.14;100427.84;5011560;28;20258;-74
2023/06/04 09:19:20;;;;;;;3.05;1.30;;;;;;;27.15;25.06;100421.66;5013006;28;20191;-74
2023/06/04 09:21:59;;;;;;;5.22;1.90;;;;;;;27.47;24.95;100424.03;5016142;28;20234;-74
2023/06/04 09:24:41;;;;;;;2.42;1.23;;;;;;;27.18;25.15;100426.53;5010662;28;20189;-74
2023/06/04 09:27:14;;;;;;;1.92;1.17;;;;;;;27.07;25.13;100427.03;5026836;28;20261;-74
2023/06/04 09:29:48;;;;;;;1.60;1.50;;;;;;;27.54;24.05;100415.19;4992265;28;20185;-75
2023/06/04 09:32:13;;;;;;;5.72;1.60;;;;;;;28.47;24.20;100429.41;5002060;28;20229;-74
2023/06/04 09:34:44;;;;;;;1.75;1.40;;;;;;;27.77;25.07;100431.84;5022225;28;20213;-74
2023/06/04 09:37:16;;;;;;;4.00;1.35;;;;;;;26.85;26.13;100429.56;5012331;28;20336;-74
2023/06/04 09:39:41;;;;;;;1.50;1.40;;;;;;;26.93;25.83;100422.56;5011819;28;20191;-74
2023/06/04 09:42:07;;;;;;;6.55;1.80;;;;;;;28.16;25.12;100420.03;5017464;28;20779;-75
2023/06/04 09:44:43;;;;;;;2.78;1.67;;;;;;;27.94;24.88;100424.50;5011381;28;20183;-74
2023/06/04 09:47:08;;;;;;;2.40;1.35;;;;;;;28.56;24.64;100422.94;5010707;28;20185;-74
2023/06/04 09:49:44;;;;;;;2.53;1.60;;;;;;;28.30;24.87;100421.75;5012913;28;20266;-74
2023/06/04 09:52:10;;;;;;;1.60;1.50;;;;;;;27.92;24.42;100421.22;5016652;28;20303;-74
2023/06/04 09:54:41;;;;;;;3.25;1.45;;;;;;;27.83;25.32;100423.19;5011468;28;20325;-74
2023/06/04 09:57:17;;;;;;;2.10;1.67;;;;;;;27.06;25.14;100428.84;5012173;28;20179;-74
2023/06/04 09:59:49;;;;;;;3.25;1.50;;;;;;;28.54;25.69;100424.13;5015063;28;20205;-74
2023/06/04 10:02:19;;;;;;;1.77;1.38;;;;;;;27.41;25.32;100419.50;5001733;28;20322;-74
2023/06/04 10:04:53;;;;;;;3.80;1.45;;;;;;;27.61;25.65;100419.72;5011275;28;20181;-74
2023/06/04 10:07:18;;;;;;;5.25;1.77;;;;;;;27.25;25.93;100425.81;5010515;28;20306;-73
2023/06/04 10:09:47;;;;;;;1.77;1.40;;;;;;;27.03;25.52;100420.47;5012433;28;20266;-73
2023/06/04 10:12:16;;;;;;;3.28;1.90;;;;;;;26.57;26.65;100421.47;5016629;28;20300;-74
2023/06/04 10:14:56;;;;;;;2.33;1.50;;;;;;;26.25;26.37;100432.16;5010680;28;20217;-73
2023/06/04 10:17:24;;;;;;;3.53;1.42;;;;;;;26.31;26.51;100421.88;5010448;28;20183;-73
2023/06/04 10:19:53;;;;;;;2.42;2.03;;;;;;;26.90;25.64;100418.47;5010834;28;20183;-74
2023/06/04 10:22:24;;;;;;;4.40;1.55;;;;;;;26.98;25.91;100426.31;5016942;28;20233;-74
2023/06/04 10:24:49;;;;;;;3.40;1.75;;;;;;;27.14;24.10;100409.44;5010464;28;20266;-74
2023/06/04 10:27:17;;;;;;;3.90;1.40;;;;;;;27.28;24.41;100415.69;5011408;28;20277;-73
2023/06/04 10:29:44;;;;;;;3.72;1.55;;;;;;;27.28;23.77;100420.97;4999337;28;20183;-73
2023/06/04 10:32:10;;;;;;;4.10;1.70;;;;;;;28.02;22.76;100416.41;5001268;28;20308;-75
2023/06/04 10:34:36;;;;;;;3.65;1.55;;;;;;;28.07;22.92;100414.06;5026894;28;20306;-74
2023/06/04 10:37:02;;;;;;;3.80;1.70;;;;;;;26.78;23.63;100422.56;5026251;28;20546;-74
2023/06/04 10:39:32;;;;;;;5.57;1.80;;;;;;;26.32;24.36;100416.44;5026996;28;20603;-74
2023/06/04 10:42:06;;;;;;;2.78;1.25;;;;;;;25.40;24.90;100412.00;5004434;28;20349;-74
2023/06/04 10:44:43;;;;;;;1.95;1.60;;;;;;;24.96;26.00;100410.69;5011950;28;20638;-74
2023/06/04 10:47:24;;;;;;;2.05;1.65;;;;;;;24.59;26.62;100409.47;5000271;28;20634;-74
2023/06/04 10:49:54;;;;;;;1.58;1.45;;;;;;;23.85;26.90;100400.63;5011463;28;20691;-74
2023/06/04 10:52:22;;;;;;;2.95;1.60;;;;;;;23.35;27.81;100404.16;5015804;28;20229;-73
2023/06/04 10:54:53;;;;;;;5.25;1.85;;;;;;;23.32;28.23;100404.47;5011657;28;20174;-74
2023/06/04 10:57:19;;;;;;;2.35;1.92;;;;;;;23.20;28.22;100407.38;5009917;28;20629;-73
2023/06/04 10:59:58;;;;;;;5.43;1.60;;;;;;;22.84;28.43;100415.41;5010008;28;20257;-72
2023/06/04 11:02:23;;;;;;;3.57;1.20;;;;;;;22.49;28.32;100408.47;4990698;28;20789;-74
2023/06/04 11:05:01;;;;;;;1.80;1.50;;;;;;;22.75;28.85;100407.66;5015393;28;20190;-74
2023/06/04 11:07:27;;;;;;;4.03;1.73;;;;;;;22.70;29.25;100402.88;5015322;28;20183;-74
2023/06/04 11:09:52;;;;;;;2.83;1.80;;;;;;;23.03;29.19;100410.91;5015241;28;20236;-74
2023/06/04 11:12:17;;;;;;;4.30;1.80;;;;;;;22.96;28.74;100407.25;5019986;28;20703;-74
2023/06/04 11:14:58;;;;;;;3.33;1.43;;;;;;;22.82;29.21;100400.81;5015382;28;20202;-74
2023/06/04 11:17:24;;;;;;;3.07;1.70;;;;;;;22.95;29.19;100401.19;5020278;28;20229;-74
2023/06/04 11:19:49;;;;;;;5.17;2.33;;;;;;;22.94;29.45;100396.13;5015676;28;20519;-74
2023/06/04 11:22:15;;;;;;;5.20;1.93;;;;;;;23.07;29.08;100401.75;5005040;28;20744;-74
2023/06/04 11:24:40;;;;;;;1.83;1.40;;;;;;;22.99;29.10;100399.91;5015215;28;20190;-74
2023/06/04 11:27:05;;;;;;;3.30;1.57;;;;;;;;;;5014818;28;20187;-74
2023/06/04 11:29:32;;;;;;;2.30;1.80;;;;;;;23.13;28.26;100387.97;5004097;28;20175;-74